createdAt,value
2023-05-11T00:00:40.358Z,996.3
2023-05-11T00:01:56.000Z,996.3
2023-05-11T00:03:12.943Z,996.3
2023-05-11T00:04:29.000Z,996.3
2023-05-11T00:05:44.548Z,996.3
2023-05-11T00:07:00.843Z,996.3
2023-05-11T00:08:17.133Z,996.3
2023-05-11T00:09:33.425Z,996.3
2023-05-11T00:10:49.722Z,996.3
2023-05-11T00:12:06.029Z,996.3
2023-05-11T00:13:22.310Z,996.2
2023-05-11T00:14:38.598Z,996.2
2023-05-11T00:15:54.913Z,996.2
2023-05-11T00:17:11.188Z,996.2
2023-05-11T00:18:27.488Z,996.3
2023-05-11T00:19:43.000Z,996.2
2023-05-11T00:21:00.076Z,996.2
2023-05-11T00:22:16.490Z,996.2
2023-05-11T00:24:49.076Z,996.2
2023-05-11T00:26:05.370Z,996.2
2023-05-11T00:27:21.673Z,996.2
2023-05-11T00:28:37.965Z,996.2
2023-05-11T00:29:54.242Z,996.2
2023-05-11T00:31:10.548Z,996.2
2023-05-11T00:32:26.828Z,996.2
2023-05-11T00:33:43.138Z,996.2
2023-05-11T00:34:59.000Z,996.2
2023-05-11T00:36:15.724Z,996.2
2023-05-11T00:37:32.008Z,996.2
2023-05-11T00:38:47.314Z,996.2
2023-05-11T00:40:02.634Z,996.2
2023-05-11T00:41:18.921Z,996.2
2023-05-11T00:42:35.211Z,996.2
2023-05-11T00:43:51.518Z,996.2
2023-05-11T00:45:07.789Z,996.2
2023-05-11T00:46:24.104Z,996.2
2023-05-11T00:47:40.000Z,996.2
2023-05-11T00:48:56.680Z,996.2
2023-05-11T00:50:12.989Z,996.2
2023-05-11T00:52:45.560Z,996.1
2023-05-11T00:54:01.850Z,996.2
2023-05-11T00:55:18.134Z,996.2
2023-05-11T00:56:33.466Z,996.2
2023-05-11T00:57:49.748Z,996.2
2023-05-11T00:59:06.040Z,996.2
2023-05-11T01:00:22.347Z,996.2
2023-05-11T01:01:38.645Z,996.2
2023-05-11T01:02:54.000Z,996.1
2023-05-11T01:04:11.223Z,996.2
2023-05-11T01:05:27.526Z,996.2
2023-05-11T01:06:43.805Z,996.1
2023-05-11T01:08:00.000Z,996.1
2023-05-11T01:09:16.389Z,996
2023-05-11T01:10:32.000Z,996
2023-05-11T01:11:48.993Z,996
2023-05-11T01:13:04.000Z,996.1
2023-05-11T01:14:20.581Z,996.1
2023-05-11T01:15:36.880Z,996
2023-05-11T01:16:53.165Z,996.1
2023-05-11T01:18:09.468Z,996.1
2023-05-11T01:19:25.748Z,996.1
2023-05-11T01:20:42.000Z,996.1
2023-05-11T01:21:58.343Z,996.1
2023-05-11T01:23:14.000Z,996
2023-05-11T01:24:30.930Z,996.1
2023-05-11T01:25:47.000Z,996
2023-05-11T01:27:03.527Z,996.1
2023-05-11T01:28:19.816Z,996
2023-05-11T01:29:35.117Z,996
2023-05-11T01:30:51.405Z,996
2023-05-11T01:32:07.714Z,996
2023-05-11T01:33:24.000Z,996.1
2023-05-11T01:34:40.288Z,996.1
2023-05-11T01:35:56.000Z,996.1
2023-05-11T01:37:12.875Z,996.2
2023-05-11T01:38:29.000Z,996.1
2023-05-11T01:39:45.462Z,996.1
2023-05-11T01:41:01.769Z,996.1
2023-05-11T01:42:18.062Z,996.1
2023-05-11T01:43:34.343Z,996.1
2023-05-11T01:44:50.646Z,996.1
2023-05-11T01:46:05.000Z,996.2
2023-05-11T01:47:22.247Z,996.2
2023-05-11T01:48:38.529Z,996.2
2023-05-11T01:49:54.839Z,996.1
2023-05-11T01:51:11.000Z,996.2
2023-05-11T01:52:27.410Z,996.2
2023-05-11T01:53:43.708Z,996.1
2023-05-11T01:54:59.994Z,996.2
2023-05-11T01:56:16.293Z,996.2
2023-05-11T01:57:32.580Z,996.2
2023-05-11T01:58:48.855Z,996.1
2023-05-11T02:00:05.172Z,996.1
2023-05-11T02:01:21.000Z,996.2
2023-05-11T02:02:36.767Z,996.1
2023-05-11T02:03:53.000Z,996.2
2023-05-11T02:05:09.370Z,996.1
2023-05-11T02:06:25.000Z,996.1
2023-05-11T02:07:41.944Z,996.1
2023-05-11T02:08:58.251Z,996.2
2023-05-11T02:10:14.542Z,996.2
2023-05-11T02:11:30.824Z,996.2
2023-05-11T02:12:47.119Z,996.2
2023-05-11T02:14:03.000Z,996.2
2023-05-11T02:15:19.716Z,996.2
2023-05-11T02:16:36.000Z,996.2
2023-05-11T02:17:52.299Z,996.2
2023-05-11T02:19:07.608Z,996.2
2023-05-11T02:20:23.890Z,996.2
2023-05-11T02:21:40.193Z,996.2
2023-05-11T02:22:56.492Z,996.2
2023-05-11T02:24:12.767Z,996.2
2023-05-11T02:25:29.062Z,996.2
2023-05-11T02:26:45.000Z,996.1
2023-05-11T02:28:01.656Z,996.2
2023-05-11T02:29:17.000Z,996.2
2023-05-11T02:30:34.239Z,996.1
2023-05-11T02:31:50.534Z,996.2
2023-05-11T02:33:06.819Z,996.2
2023-05-11T02:34:23.113Z,996.2
2023-05-11T02:35:38.441Z,996.2
2023-05-11T02:36:54.000Z,996.2
2023-05-11T02:38:11.010Z,996.2
2023-05-11T02:39:27.000Z,996.2
2023-05-11T02:40:43.613Z,996.1
2023-05-11T02:41:59.820Z,996.2
2023-05-11T02:43:16.142Z,996.1
2023-05-11T02:44:32.000Z,996.2
2023-05-11T02:45:48.731Z,996.2
2023-05-11T02:47:04.966Z,996.1
2023-05-11T02:48:21.206Z,996.1
2023-05-11T02:49:37.479Z,996.1
2023-05-11T02:50:53.792Z,996.1
2023-05-11T02:52:09.060Z,996.1
2023-05-11T02:53:25.306Z,996.1
2023-05-11T02:54:41.592Z,996.1
2023-05-11T02:55:57.902Z,996.1
2023-05-11T02:57:14.000Z,996.1
2023-05-11T02:58:30.441Z,996.2
2023-05-11T02:59:46.686Z,996.1
2023-05-11T03:01:02.000Z,996.1
2023-05-11T03:02:19.000Z,996.1
2023-05-11T03:03:35.392Z,996.1
2023-05-11T03:04:51.616Z,996.1
2023-05-11T03:06:07.877Z,996.1
2023-05-11T03:07:24.000Z,996.1
2023-05-11T03:08:39.365Z,996.1
2023-05-11T03:09:55.000Z,996
2023-05-11T03:11:11.846Z,996.1
2023-05-11T03:12:28.085Z,996.1
2023-05-11T03:13:44.329Z,996.1
2023-05-11T03:15:00.000Z,996.1
2023-05-11T03:16:16.807Z,996
2023-05-11T03:17:33.035Z,996.1
2023-05-11T03:18:49.278Z,996.1
2023-05-11T03:20:05.000Z,996.1
2023-05-11T03:21:21.768Z,996.1
2023-05-11T03:22:38.000Z,996.1
2023-05-11T03:23:54.243Z,996.1
2023-05-11T03:25:09.494Z,996
2023-05-11T03:26:25.732Z,996.1
2023-05-11T03:27:41.973Z,996
2023-05-11T03:28:58.214Z,996
2023-05-11T03:30:14.000Z,996
2023-05-11T03:31:30.685Z,996
2023-05-11T03:32:46.000Z,996
2023-05-11T03:34:03.177Z,996
2023-05-11T03:35:19.000Z,996
2023-05-11T03:36:35.651Z,996.1
2023-05-11T03:37:51.894Z,996
2023-05-11T03:39:08.122Z,996.1
2023-05-11T03:40:24.362Z,996
2023-05-11T03:42:55.000Z,996.1
2023-05-11T03:44:12.105Z,996.1
2023-05-11T03:45:28.000Z,996.1
2023-05-11T03:46:44.572Z,996.1
2023-05-11T03:48:00.000Z,996
2023-05-11T03:49:17.051Z,996
2023-05-11T03:50:33.290Z,996
2023-05-11T03:51:49.528Z,996.1
2023-05-11T03:53:05.752Z,996.1
2023-05-11T03:54:22.015Z,996.1
2023-05-11T03:55:38.000Z,996.1
2023-05-11T03:56:54.501Z,996
2023-05-11T03:58:09.757Z,996.1
2023-05-11T03:59:25.984Z,996.1
2023-05-11T04:00:42.220Z,996.1
2023-05-11T04:01:58.459Z,996.1
2023-05-11T04:03:14.701Z,996
2023-05-11T04:04:30.948Z,996.1
2023-05-11T04:05:47.000Z,996.1
2023-05-11T04:07:03.433Z,996.1
2023-05-11T04:08:19.000Z,996.1
2023-05-11T04:09:35.902Z,996
2023-05-11T04:10:52.115Z,996
2023-05-11T04:12:08.389Z,996
2023-05-11T04:13:24.631Z,996
2023-05-11T04:14:39.879Z,996
2023-05-11T04:15:56.112Z,996
2023-05-11T04:17:12.349Z,996
2023-05-11T04:18:28.000Z,996
2023-05-11T04:19:44.840Z,995.9
2023-05-11T04:21:01.000Z,996
2023-05-11T04:22:17.317Z,995.9
2023-05-11T04:23:33.563Z,995.9
2023-05-11T04:24:49.802Z,995.9
2023-05-11T04:26:06.036Z,995.9
2023-05-11T04:27:22.269Z,996
2023-05-11T04:28:38.519Z,996
2023-05-11T04:29:54.744Z,996
2023-05-11T04:31:09.984Z,996
2023-05-11T04:32:26.256Z,996
2023-05-11T04:33:42.000Z,996
2023-05-11T04:34:58.717Z,996
2023-05-11T04:36:14.935Z,996
2023-05-11T04:37:31.194Z,996
2023-05-11T04:38:47.000Z,996
2023-05-11T04:40:03.680Z,996
2023-05-11T04:41:19.916Z,996
2023-05-11T04:42:36.167Z,996
2023-05-11T04:43:52.000Z,996
2023-05-11T04:45:08.000Z,996
2023-05-11T04:46:24.874Z,996.1
2023-05-11T04:47:40.124Z,996
2023-05-11T04:48:56.377Z,996.1
2023-05-11T04:50:12.615Z,996.1
2023-05-11T04:51:28.000Z,996.1
2023-05-11T04:52:45.090Z,996.1
2023-05-11T04:54:01.000Z,996
2023-05-11T04:55:16.585Z,996.1
2023-05-11T04:56:32.000Z,996
2023-05-11T04:57:49.069Z,996
2023-05-11T04:59:05.000Z,995.9
2023-05-11T05:00:21.559Z,996
2023-05-11T05:01:37.797Z,996
2023-05-11T05:02:54.027Z,995.9
2023-05-11T05:04:10.000Z,995.9
2023-05-11T05:05:26.504Z,995.9
2023-05-11T05:06:42.000Z,995.9
2023-05-11T05:07:59.000Z,995.9
2023-05-11T05:09:15.000Z,995.9
2023-05-11T05:10:31.461Z,995.9
2023-05-11T05:11:46.714Z,995.9
2023-05-11T05:13:02.960Z,995.9
2023-05-11T05:14:19.000Z,995.8
2023-05-11T05:15:35.000Z,995.8
2023-05-11T05:16:51.000Z,995.8
2023-05-11T05:18:07.916Z,995.9
2023-05-11T05:19:24.000Z,995.9
2023-05-11T05:20:40.000Z,995.9
2023-05-11T05:21:56.609Z,995.9
2023-05-11T05:23:12.864Z,995.9
2023-05-11T05:24:29.000Z,995.9
2023-05-11T05:25:45.000Z,995.9
2023-05-11T05:27:01.000Z,995.9
2023-05-11T05:28:16.000Z,995.9
2023-05-11T05:29:33.000Z,995.9
2023-05-11T05:30:49.000Z,995.9
2023-05-11T05:32:05.557Z,995.9
2023-05-11T05:33:21.795Z,995.9
2023-05-11T05:34:38.035Z,996
2023-05-11T05:35:54.000Z,996
2023-05-11T05:37:10.000Z,996
2023-05-11T05:38:26.000Z,996
2023-05-11T05:39:43.000Z,996
2023-05-11T05:40:59.000Z,996
2023-05-11T05:42:15.000Z,996
2023-05-11T05:43:31.711Z,996
2023-05-11T05:44:46.983Z,996
2023-05-11T05:46:03.217Z,996.1
2023-05-11T05:47:19.000Z,996
2023-05-11T05:48:35.000Z,996
2023-05-11T05:49:51.905Z,996.1
2023-05-11T05:51:08.162Z,996
2023-05-11T05:52:24.000Z,996.1
2023-05-11T05:53:40.000Z,996.1
2023-05-11T05:54:56.885Z,996.1
2023-05-11T05:56:13.141Z,996.1
2023-05-11T05:57:29.000Z,996.1
2023-05-11T05:58:45.000Z,996.2
2023-05-11T06:00:01.851Z,996.1
2023-05-11T06:01:17.000Z,996.1
2023-05-11T06:02:33.000Z,996.1
2023-05-11T06:03:49.000Z,996.1
2023-05-11T06:05:05.000Z,996.1
2023-05-11T06:06:22.073Z,996.2
2023-05-11T06:07:38.000Z,996.2
2023-05-11T06:08:54.000Z,996.1
2023-05-11T06:10:10.000Z,996.2
2023-05-11T06:11:27.000Z,996.2
2023-05-11T06:12:43.000Z,996.2
2023-05-11T06:13:59.000Z,996.2
2023-05-11T06:15:15.000Z,996.2
2023-05-11T06:16:32.000Z,996.1
2023-05-11T06:17:47.000Z,996.1
2023-05-11T06:19:03.473Z,996.2
2023-05-11T06:20:19.000Z,996.2
2023-05-11T06:21:35.000Z,996.1
2023-05-11T06:22:52.000Z,996.1
2023-05-11T06:24:08.000Z,996.1
2023-05-11T06:25:24.000Z,996.2
2023-05-11T06:26:40.000Z,996.2
2023-05-11T06:27:57.000Z,996.2
2023-05-11T06:29:13.000Z,996.2
2023-05-11T06:30:29.000Z,996.1
2023-05-11T06:31:45.877Z,996.1
2023-05-11T06:33:02.000Z,996.2
2023-05-11T06:34:17.000Z,996.1
2023-05-11T06:35:33.000Z,996.2
2023-05-11T06:36:49.000Z,996.1
2023-05-11T06:38:06.000Z,996.1
2023-05-11T06:39:22.000Z,996.1
2023-05-11T06:40:38.000Z,996.1
2023-05-11T06:41:54.807Z,996.2
2023-05-11T06:43:11.000Z,996.1
2023-05-11T06:44:27.000Z,996
2023-05-11T06:45:43.000Z,996
2023-05-11T06:46:59.000Z,996
2023-05-11T06:48:16.000Z,996
2023-05-11T06:49:32.241Z,996
2023-05-11T06:50:47.497Z,996
2023-05-11T06:52:03.753Z,996
2023-05-11T06:53:19.000Z,996
2023-05-11T06:54:36.000Z,996
2023-05-11T06:55:52.000Z,996.1
2023-05-11T06:57:08.000Z,996
2023-05-11T06:58:24.000Z,996
2023-05-11T06:59:41.000Z,996.1
2023-05-11T07:00:57.000Z,996.1
2023-05-11T07:02:13.655Z,996
2023-05-11T07:03:29.000Z,996
2023-05-11T07:04:46.000Z,996
2023-05-11T07:06:02.000Z,996
2023-05-11T07:07:17.000Z,996
2023-05-11T07:08:33.000Z,996.1
2023-05-11T07:09:50.000Z,996
2023-05-11T07:11:06.000Z,996.1
2023-05-11T07:12:22.000Z,996.1
2023-05-11T07:13:38.000Z,996.1
2023-05-11T07:14:55.069Z,996.1
2023-05-11T07:16:11.279Z,996.2
2023-05-11T07:17:27.000Z,996.2
2023-05-11T07:18:43.000Z,996.2
2023-05-11T07:20:00.000Z,996.1
2023-05-11T07:21:16.000Z,996.1
2023-05-11T07:22:32.000Z,996
2023-05-11T07:23:47.000Z,996.1
2023-05-11T07:25:03.990Z,996
2023-05-11T07:26:20.000Z,996.1
2023-05-11T07:27:36.483Z,996
2023-05-11T07:28:52.000Z,996
2023-05-11T07:30:08.000Z,996.1
2023-05-11T07:31:25.000Z,996.1
2023-05-11T07:32:41.000Z,996.1
2023-05-11T07:33:57.000Z,996
2023-05-11T07:35:13.908Z,996.1
2023-05-11T07:36:30.000Z,996.1
2023-05-11T07:37:46.389Z,996.1
2023-05-11T07:39:02.000Z,996.1
2023-05-11T07:40:17.000Z,996.1
2023-05-11T07:41:34.108Z,996.1
2023-05-11T07:42:50.000Z,996.1
2023-05-11T07:44:06.000Z,996.1
2023-05-11T07:45:22.000Z,996.2
2023-05-11T07:46:39.000Z,996.1
2023-05-11T07:47:55.323Z,996.1
2023-05-11T07:49:11.000Z,996.2
2023-05-11T07:50:27.787Z,996.2
2023-05-11T07:51:44.038Z,996.1
2023-05-11T07:53:00.000Z,996.1
2023-05-11T07:54:16.000Z,996.2
2023-05-11T07:55:32.745Z,996.1
2023-05-11T07:56:48.000Z,996.2
2023-05-11T07:58:04.000Z,996.1
2023-05-11T07:59:20.476Z,996.1
2023-05-11T08:00:36.726Z,996.1
2023-05-11T08:01:52.000Z,996.2
2023-05-11T08:03:09.000Z,996.1
2023-05-11T08:04:25.000Z,996.2
2023-05-11T08:05:41.000Z,996.2
2023-05-11T08:06:57.000Z,996.2
2023-05-11T08:08:14.000Z,996.1
2023-05-11T08:09:30.000Z,996.1
2023-05-11T08:10:46.000Z,996.1
2023-05-11T08:12:02.878Z,996.1
2023-05-11T08:13:18.124Z,996.1
2023-05-11T08:14:34.000Z,996.1
2023-05-11T08:15:50.000Z,996.1
2023-05-11T08:17:06.000Z,996.1
2023-05-11T08:18:23.000Z,996.1
2023-05-11T08:19:39.000Z,996.1
2023-05-11T08:20:55.000Z,996.1
2023-05-11T08:22:11.000Z,996
2023-05-11T08:23:28.000Z,996.1
2023-05-11T08:24:44.000Z,996.1
2023-05-11T08:26:00.514Z,996.1
2023-05-11T08:27:16.000Z,996.1
2023-05-11T08:28:33.000Z,996.1
2023-05-11T08:29:48.000Z,996.1
2023-05-11T08:31:04.000Z,996.1
2023-05-11T08:32:20.000Z,996
2023-05-11T08:33:36.000Z,996.1
2023-05-11T08:34:53.000Z,996.1
2023-05-11T08:36:09.464Z,996.1
2023-05-11T08:37:25.000Z,996.1
2023-05-11T08:38:41.000Z,996.1
2023-05-11T08:39:58.000Z,996.1
2023-05-11T08:41:14.000Z,996.1
2023-05-11T08:42:30.000Z,996.2
2023-05-11T08:43:46.882Z,996.2
2023-05-11T08:45:03.000Z,996.2
2023-05-11T08:46:18.393Z,996.2
2023-05-11T08:47:34.000Z,996.1
2023-05-11T08:48:50.871Z,996.2
2023-05-11T08:50:07.000Z,996.2
2023-05-11T08:51:23.000Z,996.2
2023-05-11T08:52:39.000Z,996.1
2023-05-11T08:53:55.000Z,996.2
2023-05-11T08:55:12.000Z,996.1
2023-05-11T08:56:28.000Z,996.2
2023-05-11T08:57:44.000Z,996.2
2023-05-11T08:59:00.000Z,996.2
2023-05-11T09:00:17.000Z,996.2
2023-05-11T09:01:33.000Z,996.2
2023-05-11T09:02:48.000Z,996.2
2023-05-11T09:04:04.000Z,996.2
2023-05-11T09:05:21.000Z,996.3
2023-05-11T09:06:37.000Z,996.2
2023-05-11T09:07:53.474Z,996.3
2023-05-11T09:09:09.697Z,996.2
2023-05-11T09:10:24.000Z,996.2
2023-05-11T09:11:41.000Z,996.3
2023-05-11T09:12:57.000Z,996.3
2023-05-11T09:14:13.000Z,996.2
2023-05-11T09:15:29.000Z,996.2
2023-05-11T09:16:46.157Z,996.2
2023-05-11T09:18:02.000Z,996.2
2023-05-11T09:19:18.642Z,996.1
2023-05-11T09:20:34.000Z,996.2
2023-05-11T09:21:51.000Z,996.1
2023-05-11T09:23:07.000Z,996.2
2023-05-11T09:24:23.000Z,996.1
2023-05-11T09:25:39.000Z,996.2
2023-05-11T09:26:55.000Z,996.1
2023-05-11T09:28:11.000Z,996.1
2023-05-11T09:29:27.583Z,996.2
2023-05-11T09:30:43.000Z,996.2
2023-05-11T09:32:00.046Z,996.2
2023-05-11T09:33:16.000Z,996.2
2023-05-11T09:34:32.000Z,996.2
2023-05-11T09:35:48.000Z,996.2
2023-05-11T09:37:05.000Z,996.2
2023-05-11T09:38:21.000Z,996.2
2023-05-11T09:39:37.000Z,996.1
2023-05-11T09:40:53.000Z,996.2
2023-05-11T09:42:09.962Z,996.2
2023-05-11T09:43:26.000Z,996.2
2023-05-11T09:44:41.460Z,996.1
2023-05-11T09:45:57.000Z,996.2
2023-05-11T09:47:13.939Z,996.1
2023-05-11T09:48:30.000Z,996.2
2023-05-11T09:49:46.000Z,996.1
2023-05-11T09:51:02.000Z,996.2
2023-05-11T09:52:18.000Z,996.2
2023-05-11T09:53:35.000Z,996.2
2023-05-11T09:54:51.372Z,996.2
2023-05-11T09:56:07.000Z,996.2
2023-05-11T09:57:23.000Z,996.3
2023-05-11T09:58:40.000Z,996.3
2023-05-11T09:59:56.000Z,996.3
2023-05-11T10:01:11.000Z,996.2
2023-05-11T10:02:27.000Z,996.3
2023-05-11T10:03:44.000Z,996.2
2023-05-11T10:05:00.000Z,996.2
2023-05-11T10:06:16.000Z,996.1
2023-05-11T10:07:32.000Z,996.2
2023-05-11T10:08:49.000Z,996.2
2023-05-11T10:10:05.000Z,996.1
2023-05-11T10:11:21.000Z,996.1
2023-05-11T10:12:37.000Z,996.1
2023-05-11T10:13:54.000Z,996.1
2023-05-11T10:15:10.000Z,996.1
2023-05-11T10:16:26.000Z,996.1
2023-05-11T10:17:41.000Z,996
2023-05-11T10:18:57.000Z,996
2023-05-11T10:20:14.000Z,996
2023-05-11T10:21:30.000Z,996
2023-05-11T10:22:46.000Z,996
2023-05-11T10:24:02.000Z,995.9
2023-05-11T10:25:19.000Z,995.9
2023-05-11T10:26:35.000Z,995.9
2023-05-11T10:27:51.644Z,995.9
2023-05-11T10:29:07.000Z,996
2023-05-11T10:30:24.000Z,995.9
2023-05-11T10:31:40.000Z,996
2023-05-11T10:32:56.000Z,995.9
2023-05-11T10:34:11.000Z,995.9
2023-05-11T10:35:28.000Z,995.9
2023-05-11T10:36:44.000Z,995.9
2023-05-11T10:38:00.576Z,995.9
2023-05-11T10:39:16.804Z,995.9
2023-05-11T10:40:33.000Z,995.9
2023-05-11T10:41:49.000Z,995.8
2023-05-11T10:43:05.000Z,995.8
2023-05-11T10:44:21.000Z,995.8
2023-05-11T10:45:38.000Z,995.8
2023-05-11T10:46:54.000Z,995.8
2023-05-11T10:48:10.478Z,995.8
2023-05-11T10:49:26.720Z,995.7
2023-05-11T10:50:41.991Z,995.8
2023-05-11T10:51:58.000Z,995.8
2023-05-11T10:53:14.470Z,995.8
2023-05-11T10:54:30.000Z,995.9
2023-05-11T10:55:46.939Z,995.8
2023-05-11T10:57:03.000Z,995.8
2023-05-11T10:58:19.000Z,995.8
2023-05-11T10:59:35.000Z,995.8
2023-05-11T11:00:51.908Z,995.8
2023-05-11T11:02:08.148Z,995.8
2023-05-11T11:03:24.000Z,995.7
2023-05-11T11:04:40.000Z,995.7
2023-05-11T11:05:56.000Z,995.7
2023-05-11T11:07:12.000Z,995.8
2023-05-11T11:08:28.000Z,995.7
2023-05-11T11:09:44.000Z,995.7
2023-05-11T11:11:00.827Z,995.7
2023-05-11T11:12:17.062Z,995.7
2023-05-11T11:13:33.000Z,995.7
2023-05-11T11:14:49.000Z,995.7
2023-05-11T11:16:05.793Z,995.7
2023-05-11T11:17:22.000Z,995.7
2023-05-11T11:18:38.259Z,995.7
2023-05-11T11:19:54.000Z,995.6
2023-05-11T11:21:10.739Z,995.6
2023-05-11T11:22:26.980Z,995.6
2023-05-11T11:23:42.249Z,995.6
2023-05-11T11:24:58.470Z,995.6
2023-05-11T11:26:14.728Z,995.6
2023-05-11T11:27:30.962Z,995.6
2023-05-11T11:28:47.000Z,995.6
2023-05-11T11:30:03.000Z,995.6
2023-05-11T11:31:19.000Z,995.6
2023-05-11T11:32:35.000Z,995.6
2023-05-11T11:33:52.000Z,995.6
2023-05-11T11:35:08.000Z,995.5
2023-05-11T11:36:24.635Z,995.5
2023-05-11T11:37:40.000Z,995.5
2023-05-11T11:38:57.121Z,995.5
2023-05-11T11:40:12.000Z,995.5
2023-05-11T11:41:28.609Z,995.6
2023-05-11T11:42:44.000Z,995.5
2023-05-11T11:44:01.000Z,995.6
2023-05-11T11:45:17.276Z,995.6
2023-05-11T11:46:33.527Z,995.5
2023-05-11T11:47:49.000Z,995.5
2023-05-11T11:49:06.050Z,995.5
2023-05-11T11:50:22.000Z,995.5
2023-05-11T11:51:38.523Z,995.6
2023-05-11T11:52:54.767Z,995.6
2023-05-11T11:54:11.006Z,995.6
2023-05-11T11:55:27.000Z,995.6
2023-05-11T11:56:42.502Z,995.5
2023-05-11T11:57:58.696Z,995.6
2023-05-11T11:59:14.965Z,995.6
2023-05-11T12:00:31.000Z,995.6
2023-05-11T12:01:47.445Z,995.5
2023-05-11T12:03:03.000Z,995.5
2023-05-11T12:04:19.926Z,995.6
2023-05-11T12:05:36.000Z,995.5
2023-05-11T12:06:52.401Z,995.5
2023-05-11T12:08:08.636Z,995.5
2023-05-11T12:09:24.874Z,995.5
2023-05-11T12:10:41.000Z,995.6
2023-05-11T12:11:57.362Z,995.6
2023-05-11T12:13:12.000Z,995.6
2023-05-11T12:14:28.000Z,995.6
2023-05-11T12:15:45.000Z,995.5
2023-05-11T12:17:01.000Z,995.6
2023-05-11T12:18:17.577Z,995.6
2023-05-11T12:19:33.000Z,995.6
2023-05-11T12:20:50.000Z,995.6
2023-05-11T12:22:06.000Z,995.6
2023-05-11T12:23:22.000Z,995.6
2023-05-11T12:24:38.764Z,995.5
2023-05-11T12:25:55.000Z,995.6
2023-05-11T12:27:11.249Z,995.6
2023-05-11T12:28:27.000Z,995.7
2023-05-11T12:29:42.000Z,995.6
2023-05-11T12:30:58.000Z,995.7
2023-05-11T12:32:15.221Z,995.7
2023-05-11T12:33:31.412Z,995.7
2023-05-11T12:34:47.660Z,995.7
2023-05-11T12:36:03.000Z,995.7
2023-05-11T12:37:20.000Z,995.6
2023-05-11T12:38:36.000Z,995.6
2023-05-11T12:39:52.653Z,995.6
2023-05-11T12:41:08.000Z,995.6
2023-05-11T12:42:25.129Z,995.6
2023-05-11T12:43:41.000Z,995.6
2023-05-11T12:44:57.000Z,995.6
2023-05-11T12:46:12.823Z,995.6
2023-05-11T12:47:29.101Z,995.6
2023-05-11T12:48:45.000Z,995.7
2023-05-11T12:50:01.000Z,995.6
2023-05-11T12:51:17.000Z,995.6
2023-05-11T12:52:34.000Z,995.6
2023-05-11T12:53:50.315Z,995.6
2023-05-11T12:55:06.540Z,995.6
2023-05-11T12:56:22.000Z,995.6
2023-05-11T12:57:39.000Z,995.6
2023-05-11T12:58:55.000Z,995.6
2023-05-11T13:00:11.000Z,995.6
2023-05-11T13:01:27.000Z,995.6
2023-05-11T13:02:42.992Z,995.6
2023-05-11T13:03:59.000Z,995.6
2023-05-11T13:05:15.481Z,995.6
2023-05-11T13:06:31.709Z,995.6
2023-05-11T13:07:47.000Z,995.6
2023-05-11T13:09:04.186Z,995.6
2023-05-11T13:10:20.430Z,995.6
2023-05-11T13:11:36.622Z,995.6
2023-05-11T13:12:52.000Z,995.6
2023-05-11T13:14:09.000Z,995.6
2023-05-11T13:15:25.000Z,995.6
2023-05-11T13:16:41.000Z,995.6
2023-05-11T13:17:57.000Z,995.6
2023-05-11T13:19:13.000Z,995.7
2023-05-11T13:20:29.357Z,995.7
2023-05-11T13:21:45.595Z,995.6
2023-05-11T13:23:01.829Z,995.6
2023-05-11T13:24:18.000Z,995.6
2023-05-11T13:25:33.000Z,995.6
2023-05-11T13:26:49.000Z,995.6
2023-05-11T13:28:05.810Z,995.6
2023-05-11T13:29:22.000Z,995.6
2023-05-11T13:30:38.000Z,995.5
2023-05-11T13:31:54.543Z,995.6
2023-05-11T13:33:10.763Z,995.5
2023-05-11T13:34:27.022Z,995.6
2023-05-11T13:35:43.198Z,995.5
2023-05-11T13:36:59.000Z,995.5
2023-05-11T13:38:15.000Z,995.5
2023-05-11T13:39:31.000Z,995.6
2023-05-11T13:40:48.000Z,995.6
2023-05-11T13:42:03.469Z,995.6
2023-05-11T13:43:19.000Z,995.6
2023-05-11T13:44:35.942Z,995.6
2023-05-11T13:45:52.176Z,995.6
2023-05-11T13:47:08.000Z,995.7
2023-05-11T13:48:24.000Z,995.6
2023-05-11T13:49:40.000Z,995.6
2023-05-11T13:50:57.000Z,995.6
2023-05-11T13:52:13.000Z,995.6
2023-05-11T13:53:29.000Z,995.7
2023-05-11T13:54:45.000Z,995.6
2023-05-11T13:56:02.000Z,995.7
2023-05-11T13:57:18.000Z,995.7
2023-05-11T13:58:34.684Z,995.6
2023-05-11T13:59:50.000Z,995.7
2023-05-11T14:01:07.173Z,995.7
2023-05-11T14:02:23.000Z,995.7
2023-05-11T14:03:39.000Z,995.7
2023-05-11T14:04:55.000Z,995.7
2023-05-11T14:06:12.000Z,995.7
2023-05-11T14:07:28.000Z,995.6
2023-05-11T14:08:44.594Z,995.6
2023-05-11T14:10:00.850Z,995.6
2023-05-11T14:11:17.079Z,995.7
2023-05-11T14:12:33.000Z,995.6
2023-05-11T14:13:49.553Z,995.6
2023-05-11T14:15:04.000Z,995.7
2023-05-11T14:16:21.000Z,995.6
2023-05-11T14:17:37.000Z,995.6
2023-05-11T14:18:53.000Z,995.6
2023-05-11T14:20:09.000Z,995.6
2023-05-11T14:21:26.022Z,995.7
2023-05-11T14:22:42.247Z,995.6
2023-05-11T14:23:58.000Z,995.6
2023-05-11T14:25:14.000Z,995.7
2023-05-11T14:26:30.000Z,995.7
2023-05-11T14:27:47.000Z,995.7
2023-05-11T14:29:03.000Z,995.7
2023-05-11T14:30:19.000Z,995.7
2023-05-11T14:31:34.000Z,995.7
2023-05-11T14:32:51.000Z,995.6
2023-05-11T14:34:07.418Z,995.7
2023-05-11T14:35:23.661Z,995.6
2023-05-11T14:36:39.847Z,995.6
2023-05-11T14:37:56.000Z,995.7
2023-05-11T14:39:12.334Z,995.6
2023-05-11T14:40:28.567Z,995.6
2023-05-11T14:41:44.848Z,995.6
2023-05-11T14:43:01.000Z,995.6
2023-05-11T14:44:17.325Z,995.6
2023-05-11T14:45:33.000Z,995.6
2023-05-11T14:46:49.820Z,995.6
2023-05-11T14:48:06.000Z,995.6
2023-05-11T14:49:22.416Z,995.6
2023-05-11T14:50:38.655Z,995.6
2023-05-11T14:51:54.886Z,995.7
2023-05-11T14:53:11.128Z,995.7
2023-05-11T14:54:27.364Z,995.7
2023-05-11T14:55:43.601Z,995.7
2023-05-11T14:56:59.838Z,995.7
2023-05-11T14:58:16.000Z,995.7
2023-05-11T14:59:32.326Z,995.8
2023-05-11T15:00:48.000Z,995.7
2023-05-11T15:02:04.796Z,995.7
2023-05-11T15:03:21.000Z,995.8
2023-05-11T15:04:36.299Z,995.7
2023-05-11T15:05:52.482Z,995.7
2023-05-11T15:07:08.764Z,995.7
2023-05-11T15:08:24.970Z,995.7
2023-05-11T15:09:41.244Z,995.8
2023-05-11T15:10:57.498Z,995.7
2023-05-11T15:12:13.000Z,995.7
2023-05-11T15:13:29.971Z,995.8
2023-05-11T15:14:46.166Z,995.8
2023-05-11T15:16:02.000Z,995.8
2023-05-11T15:17:18.644Z,995.8
2023-05-11T15:18:34.914Z,995.8
2023-05-11T15:19:51.155Z,995.8
2023-05-11T15:21:06.000Z,995.8
2023-05-11T15:22:22.670Z,995.8
2023-05-11T15:23:38.000Z,995.8
2023-05-11T15:24:55.000Z,995.9
2023-05-11T15:26:11.000Z,995.9
2023-05-11T15:27:27.000Z,995.8
2023-05-11T15:28:43.864Z,995.8
2023-05-11T15:30:00.103Z,995.8
2023-05-11T15:31:16.276Z,995.8
2023-05-11T15:32:32.000Z,995.8
2023-05-11T15:33:48.806Z,995.8
2023-05-11T15:35:05.000Z,995.9
2023-05-11T15:36:21.000Z,995.9
2023-05-11T15:37:36.000Z,995.9
2023-05-11T15:38:52.000Z,995.9
2023-05-11T15:40:09.000Z,995.9
2023-05-11T15:41:25.261Z,995.9
2023-05-11T15:42:41.505Z,995.9
2023-05-11T15:43:57.000Z,996
2023-05-11T15:45:13.930Z,996
2023-05-11T15:46:30.000Z,996
2023-05-11T15:47:46.000Z,996
2023-05-11T15:49:02.000Z,996
2023-05-11T15:50:18.946Z,996
2023-05-11T15:51:35.170Z,995.9
2023-05-11T15:52:51.411Z,996
2023-05-11T15:54:07.648Z,996
2023-05-11T15:55:22.906Z,996
2023-05-11T15:56:39.000Z,996
2023-05-11T15:57:55.385Z,996
2023-05-11T15:59:11.000Z,996
2023-05-11T16:00:27.876Z,996
2023-05-11T16:01:44.000Z,996
2023-05-11T16:03:00.359Z,996
2023-05-11T16:04:16.582Z,996.1
2023-05-11T16:05:32.836Z,996.1
2023-05-11T16:06:49.000Z,996.1
2023-05-11T16:09:21.000Z,996.1
2023-05-11T16:10:37.000Z,996.1
2023-05-11T16:11:53.000Z,996
2023-05-11T16:13:09.279Z,996
2023-05-11T16:14:25.000Z,996.1
2023-05-11T16:15:41.707Z,996.1
2023-05-11T16:16:57.992Z,996.1
2023-05-11T16:18:14.000Z,996.1
2023-05-11T16:19:30.000Z,996.1
2023-05-11T16:20:46.000Z,996
2023-05-11T16:22:02.908Z,996.1
2023-05-11T16:23:19.204Z,996
2023-05-11T16:24:35.000Z,996.1
2023-05-11T16:25:51.672Z,996.1
2023-05-11T16:27:07.925Z,996.1
2023-05-11T16:28:23.184Z,996.1
2023-05-11T16:29:39.000Z,996.2
2023-05-11T16:30:55.660Z,996.1
2023-05-11T16:32:11.000Z,996.1
2023-05-11T16:33:28.143Z,996.2
2023-05-11T16:34:44.371Z,996.2
2023-05-11T16:36:00.614Z,996.1